Time;durP1;ratioP1;P1;durP2;ratioP2;P2;SDS_P1;SDS_P2;PMS_P1;PMS_P2;Temp;Humidity;BMP_temperature;BMP_pressure;BME280_temperature;BME280_humidity;BME280_pressure;Samples;Min_cycle;Max_cycle;Signal;HPM_P1;HPM_P2
2022/05/31 00:05:16;;;;;;;15.40;10.40;;;;;;;11.22;100.00;100199.86;712335;1178;115360;-73
2022/05/31 00:20:19;;;;;;;16.20;10.65;;;;;;;11.13;100.00;100199.72;712869;1180;115288;-73
2022/05/31 00:35:26;;;;;;;14.00;9.40;;;;;;;11.08;100.00;100209.80;712498;1179;115250;-74
2022/05/31 00:50:34;;;;;;;16.07;10.67;;;;;;;10.92;100.00;100207.75;712282;1178;115697;-73
2022/05/31 01:05:36;;;;;;;13.87;9.17;;;;;;;10.92;100.00;100225.31;712616;1180;115873;-73
2022/05/31 01:20:40;;;;;;;14.70;9.05;;;;;;;10.88;100.00;100237.05;712551;1178;115377;-73
2022/05/31 01:35:43;;;;;;;40.70;14.63;;;;;;;10.61;100.00;100251.66;712575;1180;114600;-73
2022/05/31 01:50:46;;;;;;;16.48;8.80;;;;;;;10.70;100.00;100252.64;712359;1180;114856;-73
2022/05/31 02:05:51;;;;;;;19.40;11.90;;;;;;;10.58;100.00;100259.81;712332;1179;115765;-73
2022/05/31 02:20:53;;;;;;;18.70;12.35;;;;;;;10.39;100.00;100271.11;712771;1180;114162;-73
2022/05/31 02:35:55;;;;;;;17.57;10.10;;;;;;;10.34;100.00;100279.33;712195;1180;116232;-73
2022/05/31 02:50:58;;;;;;;20.13;12.55;;;;;;;10.41;100.00;100288.36;712452;1180;115604;-73
2022/05/31 03:06:00;;;;;;;19.93;10.97;;;;;;;10.54;100.00;100303.02;712187;1179;115563;-73
2022/05/31 03:21:10;;;;;;;14.97;9.10;;;;;;;10.41;100.00;100318.98;712427;1180;115758;-74
2022/05/31 03:36:12;;;;;;;14.03;8.45;;;;;;;10.63;100.00;100325.81;712715;1178;115626;-71
2022/05/31 03:51:14;;;;;;;19.53;11.33;;;;;;;10.93;100.00;100338.02;712500;1180;114962;-72
2022/05/31 04:06:17;;;;;;;18.70;9.93;;;;;;;11.35;100.00;100357.11;711985;1180;116043;-72
2022/05/31 04:21:19;;;;;;;16.45;10.30;;;;;;;11.41;100.00;100372.33;713585;1179;116143;-75
2022/05/31 04:36:21;;;;;;;14.30;8.63;;;;;;;11.71;100.00;100375.77;719638;1178;115220;-73
2022/05/31 04:51:27;;;;;;;11.30;7.70;;;;;;;12.06;100.00;100372.55;712929;1180;115174;-73
2022/05/31 05:06:30;;;;;;;9.65;6.43;;;;;;;12.58;100.00;100371.25;713913;1179;114724;-73
2022/05/31 05:21:32;;;;;;;9.90;6.95;;;;;;;13.15;100.00;100363.94;713929;1180;114449;-74
2022/05/31 05:36:35;;;;;;;11.50;5.73;;;;;;;13.76;100.00;100382.59;714304;1179;114790;-72
2022/05/31 05:51:37;;;;;;;7.70;6.40;;;;;;;14.17;99.56;100392.59;713362;1179;116145;-74
2022/05/31 06:06:42;;;;;;;10.75;8.10;;;;;;;14.85;99.05;100395.42;714038;1180;114859;-73
2022/05/31 06:21:48;;;;;;;7.20;5.60;;;;;;;15.23;97.51;100403.73;714211;1180;115365;-73
2022/05/31 06:37:05;;;;;;;7.33;5.23;;;;;;;15.89;95.04;100412.56;714143;1178;115810;-77
2022/05/31 07:07:31;;;;;;;6.63;4.80;;;;;;;16.78;89.90;100417.77;713992;1178;115729;-76
2022/05/31 07:22:35;;;;;;;5.03;3.27;;;;;;;17.14;86.27;100421.74;714444;1178;115577;-76
2022/05/31 07:37:38;;;;;;;3.63;2.48;;;;;;;17.86;83.75;100441.78;715281;1179;115090;-76
2022/05/31 07:52:41;;;;;;;3.90;3.43;;;;;;;18.95;79.65;100453.77;714954;1180;115615;-76
2022/05/31 08:07:43;;;;;;;4.90;3.00;;;;;;;18.89;74.20;100454.53;714832;1178;115076;-77
2022/05/31 08:22:46;;;;;;;3.40;2.20;;;;;;;19.86;74.61;100463.11;719187;1179;116285;-78
2022/05/31 08:37:48;;;;;;;6.75;2.90;;;;;;;19.74;70.26;100468.09;714594;1180;114639;-76
2022/05/31 08:53:35;;;;;;;3.95;2.70;;;;;;;18.76;71.31;100484.39;714598;1178;115781;-76
2022/05/31 09:08:51;;;;;;;3.68;2.50;;;;;;;18.22;69.59;100477.48;714077;1180;115122;-76
2022/05/31 09:23:55;;;;;;;7.93;4.10;;;;;;;17.81;71.81;100491.91;714562;1179;115666;-76
2022/05/31 09:39:07;;;;;;;5.90;3.17;;;;;;;17.93;70.33;100494.99;714205;1178;116019;-76
2022/05/31 10:09:35;;;;;;;3.25;2.95;;;;;;;18.97;69.93;100488.98;714682;1180;116189;-76
2022/05/31 10:24:46;;;;;;;6.47;2.33;;;;;;;19.25;69.07;100502.39;715260;1180;116229;-76
2022/05/31 10:40:01;;;;;;;4.70;2.60;;;;;;;20.32;66.09;100489.27;715517;1180;115310;-78
2022/05/31 10:55:23;;;;;;;5.27;3.07;;;;;;;21.44;59.48;100489.19;712940;1177;115943;-80
2022/05/31 11:26:19;;;;;;;7.20;2.50;;;;;;;21.22;58.82;100489.35;713402;1177;115225;-78
2022/05/31 11:41:53;;;;;;;3.25;2.25;;;;;;;21.01;59.43;100492.13;713090;1179;116109;-78
2022/05/31 11:56:58;;;;;;;4.30;2.00;;;;;;;22.43;57.20;100487.63;715551;1180;114255;-76
2022/05/31 12:12:10;;;;;;;5.30;2.23;;;;;;;22.42;53.35;100477.97;713113;1179;115409;-78
2022/05/31 12:27:22;;;;;;;2.85;2.23;;;;;;;22.47;53.34;100487.20;717177;1178;115666;-78
2022/05/31 12:42:24;;;;;;;3.43;1.87;;;;;;;22.77;55.50;100466.14;724836;1180;114984;-77
2022/05/31 13:28:27;;;;;;;3.10;1.80;;;;;;;23.03;51.73;100459.86;713257;1180;115224;-76
2022/05/31 13:43:37;;;;;;;3.20;1.63;;;;;;;22.40;53.48;100450.62;713343;1179;115795;-75
2022/05/31 13:58:40;;;;;;;6.37;2.30;;;;;;;23.29;54.17;100450.06;713767;1179;114763;-76
2022/05/31 14:13:48;;;;;;;6.35;1.50;;;;;;;23.79;52.63;100432.41;716456;1180;114237;-76
2022/05/31 14:29:13;;;;;;;4.25;1.83;;;;;;;23.30;51.81;100435.65;713037;1177;114968;-76
2022/05/31 14:44:34;;;;;;;6.30;3.00;;;;;;;23.25;52.21;100416.73;715343;1180;115800;-76
2022/05/31 14:59:37;;;;;;;2.10;1.47;;;;;;;23.84;51.87;100414.64;721251;1180;114733;-76
2022/05/31 15:30:00;;;;;;;3.83;1.70;;;;;;;23.64;50.78;100416.69;713004;1180;115916;-75
2022/05/31 15:45:10;;;;;;;2.90;1.83;;;;;;;22.72;48.99;100423.98;712706;1180;114870;-75
2022/05/31 16:00:18;;;;;;;12.65;4.95;;;;;;;21.92;50.74;100418.81;712993;1180;114496;-76
2022/05/31 16:15:21;;;;;;;2.75;1.70;;;;;;;21.71;51.60;100407.34;713078;1180;114530;-78
2022/05/31 16:30:45;;;;;;;23.20;14.50;;;;;;;21.96;52.70;100409.38;714129;1179;114333;-75
2022/05/31 16:45:48;;;;;;;4.27;2.57;;;;;;;22.25;53.04;100396.56;714288;1179;115481;-76
2022/05/31 17:01:10;;;;;;;8.38;4.25;;;;;;;21.87;52.33;100379.39;714107;1177;115755;-79
2022/05/31 17:16:14;;;;;;;17.20;12.73;;;;;;;22.08;53.08;100370.31;713931;1177;114318;-78
2022/05/31 17:31:17;;;;;;;12.43;8.47;;;;;;;21.86;53.57;100363.59;713032;1180;116174;-78
2022/05/31 17:46:19;;;;;;;11.08;6.60;;;;;;;21.55;55.19;100367.70;712787;1178;116096;-78
2022/05/31 18:01:23;;;;;;;20.27;13.37;;;;;;;21.16;56.28;100369.31;715302;1180;115841;-79
2022/05/31 18:16:27;;;;;;;5.50;4.25;;;;;;;20.35;57.73;100371.69;712886;1179;115100;-79
2022/05/31 18:31:31;;;;;;;13.98;8.03;;;;;;;19.70;57.98;100369.19;713185;1179;115081;-79
2022/05/31 18:46:34;;;;;;;8.45;5.58;;;;;;;18.78;60.37;100376.91;713194;1180;115675;-81
2022/05/31 19:01:42;;;;;;;6.43;4.30;;;;;;;18.41;61.80;100376.05;713980;1178;114534;-86
2022/05/31 19:16:45;;;;;;;8.13;5.10;;;;;;;17.52;64.90;100387.34;712988;1178;115869;-80
2022/05/31 19:31:52;;;;;;;11.43;6.33;;;;;;;16.75;67.30;100391.63;718553;1180;114320;-79
2022/05/31 19:46:54;;;;;;;30.63;16.33;;;;;;;16.65;69.30;100375.11;713586;1177;116106;-78
2022/05/31 20:01:57;;;;;;;53.83;26.40;;;;;;;16.28;69.85;100373.94;713797;1178;115424;-78
2022/05/31 20:16:59;;;;;;;37.05;21.70;;;;;;;15.76;70.82;100369.91;712474;1180;116114;-78
2022/05/31 20:32:02;;;;;;;10.50;8.00;;;;;;;15.65;71.72;100341.95;714633;1178;116501;-78
2022/05/31 20:47:05;;;;;;;71.63;31.73;;;;;;;15.42;73.32;100361.14;726300;1178;116171;-78
2022/05/31 21:02:09;;;;;;;53.30;24.47;;;;;;;15.05;74.46;100356.33;713346;1179;115765;-78
2022/05/31 21:17:15;;;;;;;44.90;21.40;;;;;;;15.04;75.61;100350.20;712274;1178;116188;-77
2022/05/31 21:32:18;;;;;;;44.45;22.00;;;;;;;15.06;76.00;100342.95;712666;1177;115381;-77
2022/05/31 21:47:20;;;;;;;39.33;18.80;;;;;;;15.09;77.00;100339.98;712270;1180;116420;-77
2022/05/31 22:02:27;;;;;;;27.33;13.87;;;;;;;15.20;76.69;100328.25;712768;1179;115818;-77
2022/05/31 22:17:29;;;;;;;20.65;10.10;;;;;;;15.12;76.44;100300.04;712453;1178;116119;-82
2022/05/31 22:32:32;;;;;;;19.23;10.80;;;;;;;15.18;76.46;100290.63;712721;1179;115895;-76
2022/05/31 22:47:36;;;;;;;15.10;8.95;;;;;;;15.17;75.66;100254.61;712806;1178;115324;-77
2022/05/31 23:02:41;;;;;;;13.13;8.20;;;;;;;15.10;76.06;100238.60;712701;1179;115420;-77
2022/05/31 23:17:47;;;;;;;9.50;6.85;;;;;;;15.04;76.33;100230.52;712686;1180;115760;-77
2022/05/31 23:32:49;;;;;;;10.73;7.13;;;;;;;15.23;76.43;100231.97;713270;1180;115008;-77
2022/05/31 23:47:52;;;;;;;8.08;5.53;;;;;;;15.23;77.12;100218.77;712483;1178;115926;-77
